createdAt,value
2019-02-17T00:00:13.656Z,43.03
2019-02-17T00:02:41.935Z,47.87
2019-02-17T00:05:10.248Z,39.20
2019-02-17T00:07:38.614Z,47.13
2019-02-17T00:10:06.858Z,44.90
2019-02-17T00:12:35.131Z,42.70
2019-02-17T00:15:03.888Z,49.53
2019-02-17T00:17:32.170Z,48.03
2019-02-17T00:20:00.703Z,50.13
2019-02-17T00:22:28.977Z,45.07
2019-02-17T00:24:57.227Z,46.83
2019-02-17T00:27:25.485Z,44.00
2019-02-17T00:29:53.740Z,43.17
2019-02-17T00:32:21.989Z,45.23
2019-02-17T00:34:50.254Z,46.17
2019-02-17T00:37:18.832Z,45.27
2019-02-17T00:39:47.418Z,48.87
2019-02-17T00:42:15.998Z,46.70
2019-02-17T00:44:44.585Z,44.33
2019-02-17T00:47:13.174Z,43.87
2019-02-17T00:49:41.443Z,43.50
2019-02-17T00:52:09.778Z,44.73
2019-02-17T00:54:38.048Z,46.50
2019-02-17T00:57:06.309Z,43.80
2019-02-17T00:59:34.859Z,41.03
2019-02-17T01:02:03.106Z,42.40
2019-02-17T01:04:31.387Z,44.10
2019-02-17T01:06:59.888Z,40.27
2019-02-17T01:09:28.465Z,43.53
2019-02-17T01:11:56.709Z,46.17
2019-02-17T01:14:24.994Z,42.33
2019-02-17T01:16:53.517Z,52.63
2019-02-17T01:19:21.797Z,45.97
2019-02-17T01:21:50.054Z,44.83
2019-02-17T01:24:18.343Z,42.20
2019-02-17T01:26:46.592Z,39.60
2019-02-17T01:29:20.366Z,37.13
2019-02-17T01:31:44.830Z,38.20
2019-02-17T01:34:13.117Z,40.77
2019-02-17T01:36:41.372Z,43.23
2019-02-17T01:39:09.638Z,46.30
2019-02-17T01:41:38.236Z,41.07
2019-02-17T01:44:06.519Z,38.37
2019-02-17T01:46:34.780Z,43.37
2019-02-17T01:49:03.122Z,42.13
2019-02-17T01:51:31.370Z,45.47
2019-02-17T01:53:59.650Z,47.50
2019-02-17T01:56:27.889Z,43.60
2019-02-17T01:58:56.163Z,41.20
2019-02-17T02:01:24.434Z,40.00
2019-02-17T02:03:52.714Z,42.97
2019-02-17T02:06:21.064Z,42.30
2019-02-17T02:08:49.651Z,43.57
2019-02-17T02:11:18.245Z,42.60
2019-02-17T02:13:46.485Z,43.33
2019-02-17T02:16:14.765Z,42.73
2019-02-17T02:18:43.018Z,45.87
2019-02-17T02:21:11.296Z,42.97
2019-02-17T02:23:39.540Z,42.00
2019-02-17T02:26:07.814Z,41.47
2019-02-17T02:28:36.372Z,44.20
2019-02-17T02:31:04.650Z,46.47
2019-02-17T02:33:33.233Z,46.70
2019-02-17T02:36:01.540Z,45.90
2019-02-17T02:38:30.093Z,43.80
2019-02-17T02:40:58.366Z,43.53
2019-02-17T02:43:26.613Z,43.80
2019-02-17T02:45:55.243Z,45.83
2019-02-17T02:48:23.524Z,38.97
2019-02-17T02:50:53.225Z,42.77
2019-02-17T02:53:21.719Z,42.60
2019-02-17T02:55:49.994Z,46.73
2019-02-17T02:58:18.253Z,42.37
2019-02-17T03:00:46.522Z,42.80
2019-02-17T03:03:14.779Z,43.20
2019-02-17T03:05:45.040Z,44.60
2019-02-17T03:08:13.306Z,42.70
2019-02-17T03:10:41.622Z,43.90
2019-02-17T03:13:10.180Z,41.60
2019-02-17T03:15:38.749Z,39.90
2019-02-17T03:18:07.004Z,40.87
2019-02-17T03:20:35.339Z,37.47
2019-02-17T03:23:03.608Z,39.50
2019-02-17T03:25:32.114Z,42.77
2019-02-17T03:28:00.388Z,43.37
2019-02-17T03:30:28.662Z,44.50
2019-02-17T03:32:56.927Z,39.80
2019-02-17T03:35:25.192Z,42.57
2019-02-17T03:37:53.431Z,41.80
2019-02-17T03:40:21.694Z,42.20
2019-02-17T03:42:49.962Z,41.07
2019-02-17T03:45:18.221Z,39.77
2019-02-17T03:47:46.733Z,37.27
2019-02-17T03:50:15.253Z,42.00
2019-02-17T03:52:43.505Z,50.97
2019-02-17T03:55:11.788Z,38.60
2019-02-17T03:57:40.040Z,42.27
2019-02-17T04:00:16.479Z,38.67
2019-02-17T04:02:38.777Z,43.17
2019-02-17T04:05:07.250Z,40.87
2019-02-17T04:07:35.536Z,42.00
2019-02-17T04:10:04.091Z,42.23
2019-02-17T04:12:32.403Z,43.70
2019-02-17T04:15:01.056Z,41.47
2019-02-17T04:17:29.659Z,38.17
2019-02-17T04:19:57.906Z,43.60
2019-02-17T04:22:26.538Z,40.87
2019-02-17T04:24:55.174Z,39.63
2019-02-17T04:27:23.442Z,38.77
2019-02-17T04:29:52.047Z,38.07
2019-02-17T04:32:20.624Z,37.10
2019-02-17T04:34:48.895Z,42.33
2019-02-17T04:37:17.142Z,43.70
2019-02-17T04:39:45.754Z,41.67
2019-02-17T04:42:14.341Z,41.67
2019-02-17T04:44:43.020Z,38.73
2019-02-17T04:47:11.271Z,39.40
2019-02-17T04:49:39.548Z,39.50
2019-02-17T04:52:07.786Z,37.00
2019-02-17T04:54:36.073Z,35.23
2019-02-17T04:57:04.393Z,38.27
2019-02-17T04:59:32.988Z,41.27
2019-02-17T05:02:01.254Z,37.97
2019-02-17T05:04:29.531Z,39.43
2019-02-17T05:06:58.482Z,33.60
2019-02-17T05:09:26.753Z,35.20
2019-02-17T05:11:55.005Z,35.20
2019-02-17T05:14:23.269Z,34.67
2019-02-17T05:16:51.513Z,36.03
2019-02-17T05:19:20.125Z,35.53
2019-02-17T05:21:48.381Z,32.90
2019-02-17T05:24:16.665Z,35.60
2019-02-17T05:26:44.947Z,33.70
2019-02-17T05:29:13.235Z,41.40
2019-02-17T05:31:41.482Z,35.13
2019-02-17T05:34:09.758Z,30.03
2019-02-17T05:36:38.067Z,35.47
2019-02-17T05:39:06.512Z,36.93
2019-02-17T05:41:34.764Z,40.47
2019-02-17T05:44:03.389Z,36.37
2019-02-17T05:46:31.981Z,40.27
2019-02-17T05:49:00.308Z,39.37
2019-02-17T05:51:28.602Z,36.57
2019-02-17T05:53:57.232Z,36.70
2019-02-17T05:56:25.475Z,32.90
2019-02-17T05:58:53.720Z,38.80
2019-02-17T06:01:22.001Z,34.17
2019-02-17T06:03:50.256Z,32.83
2019-02-17T06:06:18.572Z,34.83
2019-02-17T06:08:46.888Z,36.73
2019-02-17T06:11:15.161Z,37.40
2019-02-17T06:13:43.442Z,31.57
2019-02-17T06:16:11.739Z,33.87
2019-02-17T06:18:40.067Z,32.50
2019-02-17T06:21:08.361Z,30.97
2019-02-17T06:23:36.619Z,33.83
2019-02-17T06:26:05.221Z,33.33
2019-02-17T06:28:33.499Z,32.80
2019-02-17T06:31:01.779Z,32.30
2019-02-17T06:33:30.054Z,32.97
2019-02-17T06:35:58.401Z,36.50
2019-02-17T06:38:26.638Z,32.07
2019-02-17T06:40:54.932Z,33.17
2019-02-17T06:43:23.451Z,33.37
2019-02-17T06:45:52.460Z,32.23
2019-02-17T06:48:20.730Z,37.27
2019-02-17T06:50:49.009Z,33.63
2019-02-17T06:53:17.266Z,35.93
2019-02-17T06:55:50.316Z,36.97
2019-02-17T06:58:18.574Z,32.20
2019-02-17T07:00:47.117Z,34.80
2019-02-17T07:03:15.416Z,39.50
2019-02-17T07:06:03.575Z,36.93
2019-02-17T07:08:32.144Z,35.47
2019-02-17T07:11:00.464Z,37.10
2019-02-17T07:13:28.723Z,38.33
2019-02-17T07:15:57.001Z,38.57
2019-02-17T07:18:25.253Z,39.10
2019-02-17T07:20:53.525Z,37.87
2019-02-17T07:23:22.184Z,37.40
2019-02-17T07:25:50.467Z,37.57
2019-02-17T07:28:18.728Z,36.57
2019-02-17T07:30:47.014Z,34.20
2019-02-17T07:33:15.353Z,33.90
2019-02-17T07:35:43.826Z,35.50
2019-02-17T07:38:12.411Z,37.03
2019-02-17T07:40:40.939Z,36.30
2019-02-17T07:43:09.265Z,39.13
2019-02-17T07:45:37.824Z,40.17
2019-02-17T07:48:06.138Z,33.63
2019-02-17T07:50:34.439Z,38.73
2019-02-17T07:53:02.677Z,39.60
2019-02-17T07:55:30.965Z,35.60
2019-02-17T07:57:59.220Z,37.00
2019-02-17T08:00:27.477Z,35.17
2019-02-17T08:02:56.061Z,33.50
2019-02-17T08:05:24.621Z,38.77
2019-02-17T08:07:52.921Z,36.57
2019-02-17T08:10:21.491Z,35.67
2019-02-17T08:12:49.790Z,36.00
2019-02-17T08:15:18.036Z,36.60
2019-02-17T08:17:46.336Z,36.37
2019-02-17T08:20:14.620Z,34.60
2019-02-17T08:22:42.906Z,35.93
2019-02-17T08:25:19.346Z,34.57
2019-02-17T08:27:41.213Z,38.17
2019-02-17T08:30:13.483Z,39.43
2019-02-17T08:32:44.045Z,34.47
2019-02-17T08:35:12.439Z,37.37
2019-02-17T08:37:40.765Z,37.43
2019-02-17T08:40:10.213Z,35.70
2019-02-17T08:42:38.517Z,41.73
2019-02-17T08:45:08.808Z,38.60
2019-02-17T08:47:37.087Z,41.40
2019-02-17T08:50:08.968Z,39.70
2019-02-17T08:52:37.327Z,41.90
2019-02-17T08:55:08.174Z,36.93
2019-02-17T08:57:38.074Z,39.77
2019-02-17T09:00:09.893Z,40.57
2019-02-17T09:02:38.198Z,38.37
2019-02-17T09:05:06.448Z,44.83
2019-02-17T09:07:35.388Z,36.83
2019-02-17T09:10:08.354Z,39.23
2019-02-17T09:12:36.748Z,38.43
2019-02-17T09:15:08.237Z,35.93
2019-02-17T09:17:36.518Z,36.50
2019-02-17T09:20:07.932Z,36.83
2019-02-17T09:22:36.387Z,41.53
2019-02-17T09:25:07.244Z,38.87
2019-02-17T09:27:35.538Z,35.77
2019-02-17T09:30:04.925Z,35.50
2019-02-17T09:32:33.211Z,38.10
2019-02-17T09:35:01.791Z,37.70
2019-02-17T09:37:30.113Z,38.13
2019-02-17T09:39:58.365Z,38.23
2019-02-17T09:42:26.748Z,42.67
2019-02-17T09:44:55.020Z,39.13
2019-02-17T09:47:23.332Z,38.63
2019-02-17T09:49:51.600Z,42.60
2019-02-17T09:52:20.275Z,41.63
2019-02-17T09:54:48.564Z,38.93
2019-02-17T09:57:16.848Z,38.73
2019-02-17T09:59:45.127Z,40.53
2019-02-17T10:02:13.424Z,43.53
2019-02-17T10:04:41.689Z,41.70
2019-02-17T10:07:09.983Z,42.80
2019-02-17T10:09:38.361Z,37.33
2019-02-17T10:12:06.664Z,39.90
2019-02-17T10:14:34.903Z,36.20
2019-02-17T10:17:03.194Z,37.87
2019-02-17T10:19:31.465Z,36.37
2019-02-17T10:21:59.749Z,38.30
2019-02-17T10:24:27.996Z,35.10
2019-02-17T10:26:56.606Z,36.70
2019-02-17T10:29:24.861Z,35.90
2019-02-17T10:31:53.098Z,34.67
2019-02-17T10:34:21.407Z,38.27
2019-02-17T10:36:49.672Z,37.40
2019-02-17T10:39:17.965Z,39.00
2019-02-17T10:41:46.209Z,35.23
2019-02-17T10:44:14.489Z,38.23
2019-02-17T10:46:43.013Z,33.17
2019-02-17T10:49:11.596Z,39.50
2019-02-17T10:51:39.863Z,39.87
2019-02-17T10:54:08.206Z,39.57
2019-02-17T10:56:36.515Z,35.03
2019-02-17T10:59:04.815Z,34.23
2019-02-17T11:01:33.396Z,37.07
2019-02-17T11:04:03.927Z,35.30
2019-02-17T11:06:32.525Z,36.63
2019-02-17T11:09:01.401Z,37.77
2019-02-17T11:11:29.969Z,33.60
2019-02-17T11:13:58.245Z,35.43
2019-02-17T11:16:26.504Z,32.53
2019-02-17T11:18:55.130Z,38.73
2019-02-17T11:21:23.689Z,36.07
2019-02-17T11:23:51.995Z,37.53
2019-02-17T11:26:20.236Z,34.77
2019-02-17T11:28:48.606Z,36.77
2019-02-17T11:31:16.879Z,34.43
2019-02-17T11:33:45.168Z,32.73
2019-02-17T11:36:13.499Z,33.73
2019-02-17T11:38:41.782Z,35.77
2019-02-17T11:41:12.416Z,36.27
2019-02-17T11:43:40.141Z,38.00
2019-02-17T11:46:08.743Z,34.43
2019-02-17T11:48:37.323Z,35.30
2019-02-17T11:51:05.895Z,38.07
2019-02-17T11:53:34.210Z,74.03
2019-02-17T11:56:02.486Z,45.57
2019-02-17T11:58:30.897Z,38.73
2019-02-17T12:00:59.169Z,36.63
2019-02-17T12:03:27.418Z,36.07
2019-02-17T12:05:56.038Z,38.43
2019-02-17T12:08:24.623Z,34.77
2019-02-17T12:11:01.650Z,39.60
2019-02-17T12:13:29.909Z,39.90
2019-02-17T12:15:58.225Z,40.07
2019-02-17T12:18:26.533Z,36.40
2019-02-17T12:21:13.035Z,43.20
2019-02-17T12:23:42.961Z,40.80
2019-02-17T12:26:13.014Z,36.07
2019-02-17T12:28:43.175Z,36.00
2019-02-17T12:31:13.185Z,39.53
2019-02-17T12:33:41.515Z,40.20
2019-02-17T12:36:10.065Z,36.93
2019-02-17T12:38:38.665Z,39.18
2019-02-17T12:41:07.033Z,36.47
2019-02-17T12:43:35.286Z,38.37
2019-02-17T12:46:04.082Z,37.83
2019-02-17T12:48:32.368Z,34.43
2019-02-17T12:51:00.739Z,36.37
2019-02-17T12:53:28.997Z,38.13
2019-02-17T12:55:57.585Z,39.07
2019-02-17T12:58:30.106Z,39.67
2019-02-17T13:00:56.283Z,38.83
2019-02-17T13:03:28.573Z,37.60
2019-02-17T13:05:54.996Z,35.87
2019-02-17T13:08:23.342Z,37.77
2019-02-17T13:10:52.101Z,37.23
2019-02-17T13:13:20.345Z,35.20
2019-02-17T13:15:48.655Z,39.83
2019-02-17T13:18:17.434Z,32.53
2019-02-17T13:20:46.001Z,37.40
2019-02-17T13:23:14.495Z,35.07
2019-02-17T13:25:42.841Z,34.07
2019-02-17T13:28:14.229Z,33.27
2019-02-17T13:30:42.611Z,34.17
2019-02-17T13:33:11.048Z,35.53
2019-02-17T13:35:39.755Z,36.00
2019-02-17T13:38:08.026Z,32.50
2019-02-17T13:40:36.323Z,33.47
2019-02-17T13:43:05.095Z,35.87
2019-02-17T13:45:33.411Z,32.03
2019-02-17T13:48:01.740Z,40.27
2019-02-17T13:50:30.076Z,36.57
2019-02-17T13:52:58.390Z,31.17
2019-02-17T13:55:26.742Z,28.87
2019-02-17T13:57:56.016Z,32.37
2019-02-17T14:00:24.452Z,38.07
2019-02-17T14:02:52.774Z,37.70
2019-02-17T14:05:21.487Z,36.33
2019-02-17T14:07:49.741Z,35.67
2019-02-17T14:10:18.022Z,35.83
2019-02-17T14:12:46.909Z,36.53
2019-02-17T14:15:20.073Z,33.50
2019-02-17T14:17:48.507Z,30.43
2019-02-17T14:20:17.148Z,37.23
2019-02-17T14:22:45.467Z,35.63
2019-02-17T14:25:14.095Z,34.73
2019-02-17T14:27:42.830Z,33.47
2019-02-17T14:30:14.735Z,34.83
2019-02-17T14:32:43.230Z,31.57
2019-02-17T14:35:11.668Z,31.27
2019-02-17T14:37:40.246Z,33.07
2019-02-17T14:40:15.016Z,31.33
2019-02-17T14:42:43.621Z,30.33
2019-02-17T14:45:14.090Z,30.53
2019-02-17T14:47:44.080Z,33.00
2019-02-17T14:50:14.061Z,30.17
2019-02-17T14:52:42.932Z,27.37
2019-02-17T14:55:12.189Z,34.07
2019-02-17T14:57:40.494Z,28.13
2019-02-17T15:00:13.843Z,28.90
2019-02-17T15:02:42.191Z,28.73
2019-02-17T15:05:10.717Z,29.07
2019-02-17T15:07:39.004Z,34.03
2019-02-17T15:10:11.902Z,32.33
2019-02-17T15:12:40.503Z,31.53
2019-02-17T15:15:11.661Z,30.70
2019-02-17T15:17:39.960Z,34.57
2019-02-17T15:20:11.997Z,34.87
2019-02-17T15:22:40.300Z,32.80
2019-02-17T15:25:10.793Z,35.33
2019-02-17T15:27:39.129Z,48.60
2019-02-17T15:30:10.906Z,38.10
2019-02-17T15:32:39.249Z,34.27
2019-02-17T15:35:07.506Z,30.60
2019-02-17T15:37:35.828Z,33.53
2019-02-17T15:40:09.474Z,30.83
2019-02-17T15:42:37.777Z,30.47
2019-02-17T15:45:09.298Z,30.43
2019-02-17T15:47:37.592Z,32.20
2019-02-17T15:50:10.156Z,30.80
2019-02-17T15:52:38.475Z,35.23
2019-02-17T15:55:09.828Z,30.00
2019-02-17T15:57:38.135Z,31.33
2019-02-17T16:00:12.195Z,30.17
2019-02-17T16:02:40.504Z,31.00
2019-02-17T16:05:09.405Z,39.37
2019-02-17T16:07:37.989Z,32.67
2019-02-17T16:10:11.127Z,28.93
2019-02-17T16:12:39.470Z,33.80
2019-02-17T16:15:10.933Z,32.13
2019-02-17T16:17:39.253Z,34.47
2019-02-17T16:20:10.449Z,31.17
2019-02-17T16:22:39.037Z,30.57
2019-02-17T16:25:08.890Z,29.77
2019-02-17T16:27:37.226Z,32.50
2019-02-17T16:30:17.918Z,35.07
2019-02-17T16:32:46.250Z,32.47
2019-02-17T16:35:14.527Z,33.40
2019-02-17T16:37:42.911Z,32.00
2019-02-17T16:40:13.553Z,34.27
2019-02-17T16:42:41.855Z,33.47
2019-02-17T16:45:14.450Z,33.00
2019-02-17T16:47:43.446Z,32.27
2019-02-17T16:50:15.161Z,32.27
2019-02-17T16:52:43.498Z,33.33
2019-02-17T16:55:11.741Z,32.03
2019-02-17T16:57:40.399Z,34.80
2019-02-17T17:00:12.101Z,28.80
2019-02-17T17:02:40.389Z,31.07
2019-02-17T17:05:10.582Z,33.10
2019-02-17T17:07:39.249Z,33.93
2019-02-17T17:10:07.823Z,35.80
2019-02-17T17:12:36.119Z,32.40
2019-02-17T17:15:05.705Z,34.60
2019-02-17T17:17:34.553Z,34.57
2019-02-17T17:20:03.338Z,37.50
2019-02-17T17:22:31.980Z,39.40
2019-02-17T17:25:00.677Z,39.97
2019-02-17T17:27:28.978Z,38.37
2019-02-17T17:29:57.233Z,39.40
2019-02-17T17:32:25.787Z,42.03
2019-02-17T17:34:58.800Z,40.57
2019-02-17T17:37:24.086Z,41.03
2019-02-17T17:39:52.336Z,37.90
2019-02-17T17:42:20.584Z,40.60
2019-02-17T17:44:49.144Z,41.30
2019-02-17T17:47:17.442Z,43.37
2019-02-17T17:49:46.039Z,41.37
2019-02-17T17:52:14.610Z,48.80
2019-02-17T17:54:42.974Z,39.70
2019-02-17T17:57:11.488Z,41.50
2019-02-17T17:59:39.790Z,37.33
2019-02-17T18:02:08.123Z,46.23
2019-02-17T18:04:36.417Z,39.70
2019-02-17T18:07:04.672Z,44.13
2019-02-17T18:09:33.101Z,42.47
2019-02-17T18:12:01.387Z,41.47
2019-02-17T18:14:29.772Z,37.60
2019-02-17T18:16:58.027Z,36.63
2019-02-17T18:19:26.593Z,41.80
2019-02-17T18:21:54.890Z,40.37
2019-02-17T18:24:23.259Z,44.10
2019-02-17T18:26:51.544Z,41.07
2019-02-17T18:29:20.233Z,40.17
2019-02-17T18:31:48.494Z,41.63
2019-02-17T18:34:16.883Z,40.97
2019-02-17T18:36:45.139Z,44.87
2019-02-17T18:39:13.433Z,47.23
2019-02-17T18:41:41.777Z,43.10
2019-02-17T18:44:10.131Z,44.87
2019-02-17T18:46:38.445Z,43.43
2019-02-17T18:49:06.753Z,45.07
2019-02-17T18:51:35.001Z,43.73
2019-02-17T18:54:03.301Z,40.63
2019-02-17T18:56:31.637Z,41.07
2019-02-17T18:59:00.136Z,40.80
2019-02-17T19:01:28.474Z,47.30
2019-02-17T19:03:56.797Z,42.30
2019-02-17T19:06:25.111Z,50.47
2019-02-17T19:08:53.725Z,39.47
2019-02-17T19:11:22.047Z,44.03
2019-02-17T19:13:50.332Z,51.07
2019-02-17T19:16:18.835Z,51.17
2019-02-17T19:18:47.210Z,43.70
2019-02-17T19:21:15.477Z,44.30
2019-02-17T19:23:43.786Z,46.10
2019-02-17T19:26:12.026Z,46.73
2019-02-17T19:28:40.320Z,43.40
2019-02-17T19:31:08.834Z,46.63
2019-02-17T19:33:37.410Z,44.37
2019-02-17T19:36:06.005Z,42.43
2019-02-17T19:38:34.304Z,45.93
2019-02-17T19:41:02.592Z,43.03
2019-02-17T19:43:30.924Z,48.17
2019-02-17T19:45:59.464Z,43.33
2019-02-17T19:48:27.725Z,40.97
2019-02-17T19:50:56.334Z,39.40
2019-02-17T19:53:24.604Z,41.60
2019-02-17T19:55:53.227Z,38.47
2019-02-17T19:58:21.893Z,45.00
2019-02-17T20:00:50.450Z,45.13
2019-02-17T20:03:23.938Z,48.53
2019-02-17T20:05:54.190Z,45.13
2019-02-17T20:08:22.446Z,40.13
2019-02-17T20:10:50.816Z,40.77
2019-02-17T20:13:19.318Z,42.67
2019-02-17T20:15:47.706Z,45.17
2019-02-17T20:18:16.220Z,43.50
2019-02-17T20:20:44.899Z,45.57
2019-02-17T20:23:13.397Z,45.57
2019-02-17T20:25:41.697Z,46.53
2019-02-17T20:28:09.967Z,47.67
2019-02-17T20:30:38.526Z,44.97
2019-02-17T20:33:06.845Z,44.10
2019-02-17T20:35:35.438Z,47.57
2019-02-17T20:38:05.453Z,45.13
2019-02-17T20:40:33.817Z,47.70
2019-02-17T20:43:02.190Z,46.40
2019-02-17T20:45:30.799Z,44.63
2019-02-17T20:47:59.047Z,47.70
2019-02-17T20:50:27.638Z,42.90
2019-02-17T20:52:55.881Z,46.77
2019-02-17T20:55:24.401Z,49.53
2019-02-17T20:57:52.782Z,40.40
2019-02-17T21:00:23.029Z,43.53
2019-02-17T21:02:51.354Z,40.70
2019-02-17T21:05:19.672Z,43.57
2019-02-17T21:07:48.260Z,43.63
2019-02-17T21:10:16.654Z,41.70
2019-02-17T21:12:45.039Z,42.07
2019-02-17T21:15:14.829Z,44.27
2019-02-17T21:17:43.069Z,44.70
2019-02-17T21:20:11.609Z,63.33
2019-02-17T21:22:39.857Z,49.33
2019-02-17T21:25:12.891Z,49.00
2019-02-17T21:27:41.284Z,41.93
2019-02-17T21:30:17.990Z,40.60
2019-02-17T21:32:46.804Z,46.37
2019-02-17T21:35:16.243Z,44.33
2019-02-17T21:37:44.559Z,43.97
2019-02-17T21:40:13.351Z,41.43
2019-02-17T21:42:41.952Z,46.17
2019-02-17T21:45:11.469Z,38.40
2019-02-17T21:47:39.743Z,45.57
2019-02-17T21:50:11.379Z,41.27
2019-02-17T21:52:41.783Z,45.20
2019-02-17T21:55:13.932Z,42.23
2019-02-17T21:57:42.350Z,40.90
2019-02-17T22:00:19.160Z,39.60
2019-02-17T22:02:47.767Z,44.10
2019-02-17T22:05:16.134Z,42.77
2019-02-17T22:07:44.617Z,39.17
2019-02-17T22:10:14.782Z,40.77
2019-02-17T22:12:43.524Z,39.77
2019-02-17T22:15:17.892Z,38.20
2019-02-17T22:17:46.939Z,42.30
2019-02-17T22:20:15.285Z,42.87
2019-02-17T22:22:43.601Z,45.73
2019-02-17T22:25:11.999Z,45.50
2019-02-17T22:27:40.516Z,44.43
2019-02-17T22:30:15.379Z,45.57
2019-02-17T22:32:43.773Z,40.43
2019-02-17T22:35:12.419Z,44.23
2019-02-17T22:37:40.744Z,38.20
2019-02-17T22:40:11.081Z,42.07
2019-02-17T22:42:39.346Z,40.97
2019-02-17T22:45:10.087Z,38.50
2019-02-17T22:47:38.692Z,40.50
2019-02-17T22:50:13.089Z,40.67
2019-02-17T22:52:41.366Z,34.93
2019-02-17T22:55:11.622Z,38.23
2019-02-17T22:57:39.966Z,37.97
2019-02-17T23:00:24.746Z,42.10
2019-02-17T23:02:53.273Z,38.93
2019-02-17T23:05:21.612Z,38.47
2019-02-17T23:07:49.897Z,42.43
2019-02-17T23:10:18.405Z,42.20
2019-02-17T23:12:46.699Z,39.23
2019-02-17T23:15:14.959Z,38.57
2019-02-17T23:17:43.225Z,37.23
2019-02-17T23:20:12.343Z,39.17
2019-02-17T23:22:40.620Z,43.93
2019-02-17T23:25:09.116Z,42.90
2019-02-17T23:27:37.401Z,40.17
2019-02-17T23:30:08.649Z,40.57
2019-02-17T23:32:36.950Z,37.40
2019-02-17T23:35:05.519Z,37.37
2019-02-17T23:37:34.035Z,41.93
2019-02-17T23:40:02.353Z,43.63
2019-02-17T23:42:30.641Z,43.03
2019-02-17T23:44:58.886Z,41.67
2019-02-17T23:47:27.181Z,39.07
2019-02-17T23:49:55.490Z,42.93
2019-02-17T23:52:23.842Z,48.47
2019-02-17T23:54:52.089Z,41.33
2019-02-17T23:57:20.382Z,36.93
2019-02-17T23:59:48.635Z,39.50
